Time;durP1;ratioP1;P1;durP2;ratioP2;P2;SDS_P1;SDS_P2;PMS_P1;PMS_P2;Temp;Humidity;BMP_temperature;BMP_pressure;BME280_temperature;BME280_humidity;BME280_pressure;Samples;Min_cycle;Max_cycle;Signal;HPM_P1;HPM_P2
2022/03/27 00:02:26;;;;;;;3.03;0.90;;;10.80;99.90;;;;;;20788518;28;20104;-47
2022/03/27 00:12:31;;;;;;;3.83;1.42;;;10.80;99.90;;;;;;20790349;28;20072;-47
2022/03/27 00:22:32;;;;;;;3.33;1.05;;;10.90;99.90;;;;;;20798522;28;20041;-47
2022/03/27 00:32:33;;;;;;;3.88;1.40;;;10.70;99.90;;;;;;20793111;28;20041;-48
2022/03/27 00:42:34;;;;;;;3.92;1.75;;;10.70;99.90;;;;;;20794284;28;20049;-48
2022/03/27 00:52:35;;;;;;;12.20;2.35;;;10.50;99.90;;;;;;20815414;28;20039;-47
2022/03/27 01:02:36;;;;;;;5.07;2.13;;;10.50;99.90;;;;;;20831929;28;20064;-48
2022/03/27 01:12:39;;;;;;;4.45;1.92;;;10.40;99.90;;;;;;20808256;28;20044;-47
2022/03/27 01:22:40;;;;;;;5.57;2.20;;;10.40;99.90;;;;;;20830641;28;20959;-47
2022/03/27 01:32:41;;;;;;;6.32;2.58;;;10.30;99.90;;;;;;20840277;28;20049;-47
2022/03/27 01:42:42;;;;;;;5.38;2.72;;;10.10;99.90;;;;;;20795867;28;20425;-47
2022/03/27 01:52:43;;;;;;;5.15;2.22;;;9.90;99.90;;;;;;20805912;28;20041;-48
2022/03/27 02:02:45;;;;;;;6.55;3.03;;;10.00;99.90;;;;;;20791465;28;20041;-47
2022/03/27 02:12:46;;;;;;;5.43;2.47;;;9.80;99.90;;;;;;20792571;28;20045;-47
2022/03/27 02:22:47;;;;;;;7.50;2.53;;;9.70;99.90;;;;;;20808447;28;20048;-47
2022/03/27 02:32:48;;;;;;;5.63;2.58;;;9.70;99.90;;;;;;21403054;23;20068;-82
2022/03/27 02:42:49;;;;;;;4.40;1.70;;;9.50;99.90;;;;;;20800204;28;20523;-81
2022/03/27 02:52:52;;;;;;;6.82;2.17;;;9.30;99.90;;;;;;20823348;28;20099;-82
2022/03/27 03:02:54;;;;;;;6.28;2.13;;;9.10;99.90;;;;;;20829406;28;20042;-81
2022/03/27 03:12:56;;;;;;;9.05;2.58;;;9.00;99.90;;;;;;20804861;28;20041;-82
2022/03/27 03:22:58;;;;;;;6.47;2.97;;;8.90;99.90;;;;;;20814840;28;20049;-81
2022/03/27 03:32:59;;;;;;;6.13;2.33;;;8.80;99.90;;;;;;20797344;28;20055;-81
2022/03/27 03:43:00;;;;;;;5.75;2.13;;;8.70;99.90;;;;;;20824713;28;20041;-81
2022/03/27 03:53:02;;;;;;;4.72;1.80;;;8.70;99.90;;;;;;20806414;28;20711;-82
2022/03/27 04:03:04;;;;;;;6.82;2.70;;;8.60;99.90;;;;;;20824964;28;20041;-82
2022/03/27 04:13:09;;;;;;;5.18;1.60;;;8.40;99.90;;;;;;20827077;28;20048;-81
2022/03/27 04:23:10;;;;;;;5.65;1.98;;;8.50;99.90;;;;;;20828504;28;20081;-82
2022/03/27 04:33:11;;;;;;;4.30;1.38;;;8.50;99.90;;;;;;20846764;28;20498;-82
2022/03/27 04:43:12;;;;;;;4.75;1.65;;;8.40;99.90;;;;;;20834913;28;20069;-82
2022/03/27 04:53:13;;;;;;;5.13;2.20;;;8.20;99.90;;;;;;20809513;28;20715;-81
2022/03/27 05:03:15;;;;;;;7.82;2.85;;;8.10;99.90;;;;;;20802244;28;20528;-82
2022/03/27 05:13:18;;;;;;;5.95;1.60;;;8.00;99.90;;;;;;20830527;28;20069;-81
2022/03/27 05:23:19;;;;;;;5.00;1.77;;;7.80;99.90;;;;;;20835141;28;20087;-82
2022/03/27 05:33:20;;;;;;;7.38;1.73;;;7.60;99.90;;;;;;20809831;28;20171;-82
2022/03/27 05:43:21;;;;;;;3.28;1.40;;;7.50;99.90;;;;;;20832133;28;20105;-81
2022/03/27 05:53:23;;;;;;;4.70;1.80;;;7.50;99.90;;;;;;20823682;28;20093;-82
2022/03/27 06:03:24;;;;;;;3.97;2.03;;;7.50;99.90;;;;;;20811040;28;20842;-82
2022/03/27 06:13:26;;;;;;;3.92;1.50;;;7.60;99.90;;;;;;20835517;28;20098;-82
2022/03/27 06:23:27;;;;;;;5.82;1.60;;;7.50;99.90;;;;;;20839511;28;20042;-82
2022/03/27 06:33:29;;;;;;;4.13;1.65;;;7.50;99.90;;;;;;20852438;28;20060;-82
2022/03/27 06:43:30;;;;;;;4.82;1.50;;;7.40;99.90;;;;;;20796723;28;20097;-82
2022/03/27 06:53:31;;;;;;;4.78;1.58;;;7.40;99.90;;;;;;20833587;28;20641;-81
2022/03/27 07:03:32;;;;;;;5.35;1.80;;;7.50;99.90;;;;;;20817845;28;20045;-81
2022/03/27 07:13:34;;;;;;;5.32;1.88;;;7.50;99.90;;;;;;20799751;28;20041;-81
2022/03/27 07:23:35;;;;;;;3.88;1.55;;;7.50;99.90;;;;;;20768254;28;20041;-82
2022/03/27 07:33:36;;;;;;;4.85;1.88;;;7.80;99.90;;;;;;20811602;28;20638;-81
2022/03/27 07:43:37;;;;;;;5.70;2.17;;;8.00;99.90;;;;;;20807977;28;20033;-81
2022/03/27 07:53:38;;;;;;;3.00;1.13;;;8.20;99.90;;;;;;20816966;28;20033;-82
2022/03/27 08:03:39;;;;;;;3.42;1.27;;;8.40;99.90;;;;;;20776444;28;20045;-81
2022/03/27 08:13:41;;;;;;;4.55;1.58;;;8.70;99.90;;;;;;20789879;28;20137;-80
2022/03/27 08:23:42;;;;;;;3.75;1.48;;;9.00;99.90;;;;;;20778963;28;20045;-81
2022/03/27 08:33:43;;;;;;;3.33;1.25;;;9.20;99.90;;;;;;20760330;28;20037;-82
2022/03/27 08:43:45;;;;;;;6.25;1.67;;;9.70;99.90;;;;;;20798939;28;20052;-80
2022/03/27 08:54:04;;;;;;;5.65;1.42;;;10.00;99.90;;;;;;20806829;28;20041;-81
2022/03/27 09:04:05;;;;;;;2.65;0.93;;;10.30;99.90;;;;;;20786158;28;20037;-81
2022/03/27 09:14:10;;;;;;;2.97;1.33;;;10.80;99.90;;;;;;20813393;28;20168;-82
2022/03/27 09:24:16;;;;;;;2.85;1.13;;;11.00;99.90;;;;;;20814054;28;20136;-81
2022/03/27 09:34:19;;;;;;;4.32;1.48;;;11.30;99.90;;;;;;20816838;28;20145;-81
2022/03/27 09:44:29;;;;;;;3.08;1.15;;;11.60;99.90;;;;;;20812480;28;20042;-81
2022/03/27 09:54:43;;;;;;;3.05;1.20;;;11.80;99.90;;;;;;20799409;28;20041;-81
2022/03/27 10:04:57;;;;;;;2.65;1.00;;;11.90;99.90;;;;;;20813281;28;20376;-80
2022/03/27 10:15:00;;;;;;;4.57;1.58;;;12.30;99.90;;;;;;20809617;28;20045;-81
2022/03/27 10:25:04;;;;;;;3.50;1.40;;;12.50;99.90;;;;;;20818391;28;20047;-80
2022/03/27 10:35:34;;;;;;;6.03;1.55;;;12.70;99.90;;;;;;20813858;28;20544;-80
2022/03/27 10:45:36;;;;;;;6.05;0.93;;;12.90;99.90;;;;;;20851420;28;20053;-81
2022/03/27 10:55:48;;;;;;;4.45;1.23;;;12.90;99.90;;;;;;20821223;28;20069;-81
2022/03/27 11:05:59;;;;;;;4.10;1.08;;;13.50;99.90;;;;;;20828537;28;20140;-82
2022/03/27 11:16:15;;;;;;;4.63;1.53;;;13.80;99.90;;;;;;20832556;28;20038;-82
2022/03/27 11:26:19;;;;;;;3.55;0.70;;;14.80;99.90;;;;;;20808073;28;20041;-82
2022/03/27 11:36:24;;;;;;;3.45;1.52;;;15.10;97.60;;;;;;20826301;28;20060;-81
2022/03/27 11:46:28;;;;;;;2.03;0.80;;;15.60;97.60;;;;;;20805876;28;20049;-82
2022/03/27 11:56:29;;;;;;;1.98;0.77;;;15.90;96.40;;;;;;20820013;28;20060;-81
2022/03/27 12:06:30;;;;;;;3.53;0.68;;;16.60;94.60;;;;;;20812851;28;20041;-82
2022/03/27 12:16:32;;;;;;;2.08;0.93;;;16.60;94.70;;;;;;20792490;28;20041;-83
2022/03/27 12:37:12;;;;;;;2.55;0.65;;;17.50;90.00;;;;;;20836217;28;20591;-82
2022/03/27 12:47:14;;;;;;;2.63;0.80;;;17.80;93.10;;;;;;20829715;28;20136;-81
2022/03/27 12:57:15;;;;;;;4.38;1.00;;;17.70;93.70;;;;;;20839010;28;20389;-82
2022/03/27 13:07:19;;;;;;;6.93;1.83;;;18.00;93.90;;;;;;20830357;28;20659;-82
2022/03/27 13:17:20;;;;;;;4.05;1.23;;;17.50;95.80;;;;;;20800866;28;20119;-81
2022/03/27 13:27:21;;;;;;;6.57;1.40;;;18.10;96.40;;;;;;20802051;28;20116;-80
2022/03/27 13:37:22;;;;;;;7.03;1.48;;;18.20;96.00;;;;;;20817672;28;20152;-79
2022/03/27 13:47:25;;;;;;;6.10;1.98;;;18.40;97.50;;;;;;20820353;28;20045;-80
2022/03/27 13:57:26;;;;;;;4.13;1.58;;;18.80;97.70;;;;;;20811618;28;20118;-80
2022/03/27 14:07:28;;;;;;;2.78;1.45;;;18.30;98.00;;;;;;20805420;28;20038;-80
2022/03/27 14:17:29;;;;;;;4.65;1.23;;;19.20;96.70;;;;;;20828866;28;20047;-81
2022/03/27 14:27:30;;;;;;;4.97;1.77;;;18.70;96.00;;;;;;20850865;28;20131;-80
2022/03/27 14:37:33;;;;;;;6.28;1.45;;;17.80;97.90;;;;;;20886448;28;20045;-79
2022/03/27 14:47:35;;;;;;;6.80;1.30;;;17.10;98.40;;;;;;20853251;28;20080;-82
2022/03/27 14:57:37;;;;;;;6.30;1.20;;;16.50;98.50;;;;;;20831929;28;20037;-80
2022/03/27 15:07:38;;;;;;;11.38;1.50;;;16.40;98.30;;;;;;20810032;28;20048;-80
2022/03/27 15:17:39;;;;;;;4.60;1.85;;;16.10;99.20;;;;;;20820329;28;20105;-80
2022/03/27 15:27:41;;;;;;;6.03;1.20;;;15.90;98.90;;;;;;20824968;28;20136;-80
2022/03/27 15:37:43;;;;;;;6.93;1.13;;;15.70;99.40;;;;;;20772607;28;20670;-80
2022/03/27 15:47:48;;;;;;;3.25;1.08;;;16.00;99.40;;;;;;20784790;28;20063;-80
2022/03/27 15:57:49;;;;;;;3.50;1.00;;;15.80;99.20;;;;;;20802103;28;20068;-80
2022/03/27 16:07:50;;;;;;;3.25;1.45;;;15.40;99.50;;;;;;20814901;28;20116;-80
2022/03/27 16:17:55;;;;;;;7.72;1.38;;;15.00;99.90;;;;;;20803466;28;20072;-80
2022/03/27 16:27:56;;;;;;;5.15;1.27;;;14.80;99.90;;;;;;20830427;28;20056;-81
2022/03/27 16:37:59;;;;;;;6.55;1.00;;;14.80;99.90;;;;;;20809186;28;20140;-79
2022/03/27 16:48:01;;;;;;;5.07;1.20;;;14.50;99.90;;;;;;20823015;28;20056;-80
2022/03/27 16:58:02;;;;;;;1.20;0.40;;;14.20;99.90;;;;;;20823152;28;20049;-80
2022/03/27 17:08:07;;;;;;;7.38;1.73;;;13.80;99.90;;;;;;20832785;28;20095;-81
2022/03/27 17:18:08;;;;;;;3.10;0.90;;;13.80;99.90;;;;;;20827351;28;20393;-80
2022/03/27 17:28:09;;;;;;;3.60;0.95;;;13.70;99.90;;;;;;20822606;28;20160;-80
2022/03/27 17:38:11;;;;;;;2.85;0.45;;;13.40;99.90;;;;;;20813589;28;20045;-80
2022/03/27 17:48:13;;;;;;;1.65;0.43;;;13.20;99.90;;;;;;20817219;28;20100;-80
2022/03/27 17:58:14;;;;;;;1.30;0.50;;;13.10;99.90;;;;;;20829192;28;20097;-80
2022/03/27 18:08:16;;;;;;;12.68;1.50;;;12.90;99.90;;;;;;20810594;28;20041;-80
2022/03/27 18:18:19;;;;;;;6.75;0.57;;;12.70;99.90;;;;;;20829345;28;20120;-81
2022/03/27 18:28:22;;;;;;;3.70;1.15;;;12.50;99.90;;;;;;20807160;28;20106;-81
2022/03/27 18:38:24;;;;;;;8.85;1.00;;;12.40;99.90;;;;;;20823109;28;20093;-81
2022/03/27 18:48:26;;;;;;;9.60;0.93;;;12.20;99.90;;;;;;20829028;28;20167;-80
2022/03/27 18:58:27;;;;;;;11.30;1.73;;;12.10;99.90;;;;;;20848968;28;20064;-81
2022/03/27 19:08:29;;;;;;;7.30;0.75;;;11.90;99.90;;;;;;20820444;28;20088;-82
2022/03/27 19:18:32;;;;;;;5.78;0.98;;;11.80;99.90;;;;;;20826073;28;20061;-80
2022/03/27 19:28:34;;;;;;;10.70;1.38;;;11.70;99.90;;;;;;20841935;28;20128;-80
2022/03/27 19:38:35;;;;;;;9.27;3.50;;;11.70;99.90;;;;;;20846923;28;20874;-80
2022/03/27 19:48:36;;;;;;;12.88;2.35;;;11.60;99.90;;;;;;20841416;28;20061;-82
2022/03/27 19:58:42;;;;;;;3.50;1.52;;;11.50;99.90;;;;;;20808688;28;20048;-82
2022/03/27 20:08:43;;;;;;;5.95;1.17;;;11.40;99.90;;;;;;20829046;28;20097;-80
2022/03/27 20:18:44;;;;;;;7.55;1.60;;;11.30;99.90;;;;;;20826422;28;20136;-80
2022/03/27 20:28:45;;;;;;;5.97;1.75;;;11.20;99.90;;;;;;20809505;28;20596;-80
2022/03/27 20:38:46;;;;;;;3.33;1.20;;;11.10;99.90;;;;;;20819282;28;20041;-80
2022/03/27 20:48:48;;;;;;;4.35;0.95;;;11.00;99.90;;;;;;20829198;28;20870;-80
2022/03/27 20:58:49;;;;;;;6.28;2.53;;;10.90;99.90;;;;;;20817809;28;20033;-81
2022/03/27 21:08:50;;;;;;;2.60;1.15;;;10.80;99.90;;;;;;20821977;28;20097;-80
2022/03/27 21:18:52;;;;;;;4.53;1.27;;;10.60;99.90;;;;;;20818628;28;20033;-81
2022/03/27 21:28:53;;;;;;;3.45;0.80;;;10.60;99.90;;;;;;20802108;28;20269;-81
2022/03/27 21:38:54;;;;;;;6.95;2.03;;;10.50;99.90;;;;;;20784762;28;20077;-81
2022/03/27 21:48:55;;;;;;;3.65;1.00;;;10.40;99.90;;;;;;20819119;28;20456;-81
2022/03/27 21:58:56;;;;;;;8.57;2.05;;;10.30;99.90;;;;;;20808438;28;20381;-81
2022/03/27 22:08:58;;;;;;;4.30;1.17;;;10.20;99.90;;;;;;20800944;28;20042;-80
2022/03/27 22:19:04;;;;;;;6.40;0.88;;;10.10;99.90;;;;;;20789101;28;20045;-80
2022/03/27 22:29:06;;;;;;;3.17;1.40;;;9.90;99.90;;;;;;20804557;28;20386;-81
2022/03/27 22:39:07;;;;;;;6.00;1.45;;;9.70;99.90;;;;;;20827145;28;20057;-83
2022/03/27 22:49:09;;;;;;;5.03;0.75;;;9.60;99.90;;;;;;20806811;28;20080;-80
2022/03/27 22:59:11;;;;;;;29.23;1.92;;;9.50;99.90;;;;;;20807898;28;20045;-81
2022/03/27 23:09:12;;;;;;;3.55;0.63;;;9.30;99.90;;;;;;20801966;28;20041;-81
2022/03/27 23:19:13;;;;;;;9.13;1.23;;;9.10;99.90;;;;;;20810410;28;20132;-82
2022/03/27 23:29:14;;;;;;;13.40;1.58;;;9.00;99.90;;;;;;20809207;28;20120;-81
2022/03/27 23:39:15;;;;;;;10.65;0.98;;;8.90;99.90;;;;;;20824647;28;20054;-81
2022/03/27 23:49:18;;;;;;;6.50;1.17;;;8.80;99.90;;;;;;20802937;28;20048;-81
2022/03/27 23:59:20;;;;;;;2.60;0.80;;;8.70;99.90;;;;;;20824302;28;20334;-80
